Orel 5 — EMFH — position and weather

sailwx.info

Track history (hours):
 
Tides and Currents Weather Stations Pressure Air Temp Water Temp Dewpoint Dewpoint Depression Visibility Wind Speed Wind Dir Waves Ship Positions

Orel 5

Last reported at 2014-Dec-20 08:30 UTC. Time now 2014-Dec-20 10:24 UTC.
Position N 38°07' E 024°54'.

Length 108 m; draft 3.5 m.

Type: Cargo ship. MMSI: 272059000.

Date/timePositionNaut miles runAvg speedWind from/ knotsBaromVisibWave heightAir tempDewpointWater temp
2014-Dec-20 08:30N 38°07' E 024°54'24 8.3
2014-Dec-20 05:33N 37°48' E 024°35'8 8.0
2014-Dec-20 04:33N 37°41' E 024°31'8 7.9
2014-Dec-20 03:32N 37°33' E 024°27'9 8.0
2014-Dec-20 02:27N 37°27' E 024°20'7 8.2
2014-Dec-20 01:32N 37°22' E 024°13'9 8.5
2014-Dec-20 00:32N 37°15' E 024°07'10 8.0
2014-Dec-19 23:16N 37°05' E 024°03'6 8.3
2014-Dec-19 22:32N 36°60' E 024°01'9 8.6
2014-Dec-19 21:33N 36°51' E 023°58'9 8.5
2014-Dec-19 20:32N 36°43' E 023°55'8 7.8
2014-Dec-19 19:32N 36°37' E 023°48'  
2014-Dec-12 08:33N 37°53' E 015°41'9 7.8
2014-Dec-12 07:20N 38°02' E 015°37'6 6.1
2014-Dec-12 06:22N 38°08' E 015°39'0 0.0
2014-Dec-11 19:20N 38°08' E 015°39'0 0.0
2014-Dec-11 15:20N 38°08' E 015°39'0 0.0
2014-Dec-11 14:32N 38°08' E 015°39'0 0.0
2014-Dec-11 13:26N 38°08' E 015°39'0 0.0
2014-Dec-11 12:14N 38°08' E 015°39'0 0.0
2014-Dec-11 11:26N 38°08' E 015°39'0 0.0
2014-Dec-11 10:14N 38°08' E 015°39'0 0.0
2014-Dec-11 09:20N 38°08' E 015°39'0 0.0
2014-Dec-11 07:32N 38°08' E 015°39'0 0.0
2014-Dec-11 06:32N 38°08' E 015°39'0 0.0
2014-Dec-10 17:32N 38°08' E 015°39'0 0.0
2014-Dec-10 15:14N 38°08' E 015°39'0 0.0
2014-Dec-10 14:32N 38°08' E 015°39'  
Track history (hours):
 
Tides and Currents Weather Stations Pressure Air Temp Water Temp Dewpoint Dewpoint Depression Visibility Wind Speed Wind Dir Waves Ship Positions

Orel 5

Last reported at 2014-Dec-20 08:30 UTC. Time now 2014-Dec-20 10:24 UTC.
Position N 38°07' E 024°54'.

Length 108 m; draft 3.5 m.

Type: Cargo ship. MMSI: 272059000.

Date/timePositionNaut miles runAvg speedWind from/ knotsBaromVisibWave heightAir tempDewpointWater temp
2014-Dec-20 08:30N 38°07' E 024°54'24 8.3
2014-Dec-20 05:33N 37°48' E 024°35'8 8.0
2014-Dec-20 04:33N 37°41' E 024°31'8 7.9
2014-Dec-20 03:32N 37°33' E 024°27'9 8.0
2014-Dec-20 02:27N 37°27' E 024°20'7 8.2
2014-Dec-20 01:32N 37°22' E 024°13'9 8.5
2014-Dec-20 00:32N 37°15' E 024°07'10 8.0
2014-Dec-19 23:16N 37°05' E 024°03'6 8.3
2014-Dec-19 22:32N 36°60' E 024°01'9 8.6
2014-Dec-19 21:33N 36°51' E 023°58'9 8.5
2014-Dec-19 20:32N 36°43' E 023°55'8 7.8
2014-Dec-19 19:32N 36°37' E 023°48'  
2014-Dec-12 08:33N 37°53' E 015°41'9 7.8
2014-Dec-12 07:20N 38°02' E 015°37'6 6.1
2014-Dec-12 06:22N 38°08' E 015°39'0 0.0
2014-Dec-11 19:20N 38°08' E 015°39'0 0.0
2014-Dec-11 15:20N 38°08' E 015°39'0 0.0
2014-Dec-11 14:32N 38°08' E 015°39'0 0.0
2014-Dec-11 13:26N 38°08' E 015°39'0 0.0
2014-Dec-11 12:14N 38°08' E 015°39'0 0.0
2014-Dec-11 11:26N 38°08' E 015°39'0 0.0
2014-Dec-11 10:14N 38°08' E 015°39'0 0.0
2014-Dec-11 09:20N 38°08' E 015°39'0 0.0
2014-Dec-11 07:32N 38°08' E 015°39'0 0.0
2014-Dec-11 06:32N 38°08' E 015°39'0 0.0
2014-Dec-10 17:32N 38°08' E 015°39'0 0.0
2014-Dec-10 15:14N 38°08' E 015°39'0 0.0
2014-Dec-10 14:32N 38°08' E 015°39'  

Dump ship's entire track history